Time;durP1;ratioP1;P1;durP2;ratioP2;P2;SDS_P1;SDS_P2;PMS_P1;PMS_P2;Temp;Humidity;BMP_temperature;BMP_pressure;BME280_temperature;BME280_humidity;BME280_pressure;Samples;Min_cycle;Max_cycle;Signal;HPM_P1;HPM_P2
2022/04/15 00:01:58;;;;;;;7.95;7.10;;;9.40;99.90;;;;;;5033255;28;20217;-70
2022/04/15 00:04:24;;;;;;;7.50;6.82;;;9.30;99.90;;;;;;5033095;28;20194;-70
2022/04/15 00:06:49;;;;;;;8.32;6.93;;;9.30;99.90;;;;;;5033240;28;20207;-70
2022/04/15 00:09:15;;;;;;;6.95;6.35;;;9.20;99.90;;;;;;5033177;28;20711;-70
2022/04/15 00:11:41;;;;;;;6.78;6.18;;;9.30;99.90;;;;;;5033786;28;20179;-69
2022/04/15 00:14:06;;;;;;;7.45;6.32;;;9.40;99.90;;;;;;5034413;28;20174;-69
2022/04/15 00:16:32;;;;;;;6.88;6.28;;;9.40;99.90;;;;;;5033920;28;20662;-69
2022/04/15 00:18:57;;;;;;;6.22;5.63;;;9.40;99.90;;;;;;5034505;28;20183;-69
2022/04/15 00:21:23;;;;;;;6.10;5.60;;;9.50;99.90;;;;;;5033072;28;20179;-69
2022/04/15 00:23:54;;;;;;;8.63;5.90;;;9.40;99.90;;;;;;5032618;28;20271;-69
2022/04/15 00:26:19;;;;;;;6.63;6.03;;;9.30;99.90;;;;;;5033057;28;20205;-69
2022/04/15 00:28:45;;;;;;;6.25;5.68;;;9.30;99.90;;;;;;5032565;28;20183;-69
2022/04/15 00:31:11;;;;;;;6.38;5.88;;;9.30;99.90;;;;;;5034075;28;20203;-69
2022/04/15 00:33:36;;;;;;;7.30;5.68;;;9.20;99.90;;;;;;5032496;28;20304;-69
2022/04/15 00:36:02;;;;;;;50.13;41.42;;;9.20;99.90;;;;;;5032605;28;20199;-69
2022/04/15 00:38:27;;;;;;;16.60;13.98;;;9.30;99.90;;;;;;5066636;28;20194;-69
2022/04/15 00:40:53;;;;;;;8.50;7.63;;;9.30;99.90;;;;;;5066237;28;20175;-69
2022/04/15 00:43:32;;;;;;;7.68;6.97;;;9.30;99.90;;;;;;5032590;28;20260;-69
2022/04/15 00:46:27;;;;;;;6.63;5.72;;;9.30;99.90;;;;;;5032028;28;20300;-69
2022/04/15 00:48:53;;;;;;;6.30;5.60;;;9.20;99.90;;;;;;5033724;28;20195;-69
2022/04/15 00:51:19;;;;;;;6.47;5.90;;;9.10;99.90;;;;;;5032333;28;20522;-69
2022/04/15 00:53:45;;;;;;;6.78;6.15;;;9.00;99.90;;;;;;5034064;28;20207;-69
2022/04/15 00:56:13;;;;;;;6.88;6.05;;;9.00;99.90;;;;;;5033750;28;20194;-69
2022/04/15 00:58:39;;;;;;;6.45;5.95;;;8.90;99.90;;;;;;5032349;28;20595;-69
2022/04/15 01:01:06;;;;;;;6.65;6.05;;;8.80;99.90;;;;;;5033457;28;20209;-69
2022/04/15 01:03:34;;;;;;;6.60;6.05;;;8.80;99.90;;;;;;5032168;28;20202;-69
2022/04/15 01:05:59;;;;;;;9.10;8.20;;;8.70;99.90;;;;;;5032942;28;20592;-73
2022/04/15 01:08:28;;;;;;;8.10;7.40;;;8.70;99.90;;;;;;5032951;28;20181;-70
2022/04/15 01:10:58;;;;;;;6.82;6.22;;;8.70;99.90;;;;;;5032338;28;20179;-70
2022/04/15 01:13:50;;;;;;;5.80;5.30;;;8.70;99.90;;;;;;5032001;28;20191;-69
2022/04/15 01:16:30;;;;;;;5.80;5.40;;;8.70;99.90;;;;;;5033469;28;20197;-69
2022/04/15 01:19:00;;;;;;;6.05;5.18;;;8.60;99.90;;;;;;5031993;28;20266;-69
2022/04/15 01:21:29;;;;;;;7.82;6.20;;;8.60;99.90;;;;;;5032638;28;20171;-69
2022/04/15 01:23:54;;;;;;;11.38;10.25;;;8.50;99.90;;;;;;5033327;28;20198;-69
2022/04/15 01:26:20;;;;;;;13.82;11.15;;;8.50;99.90;;;;;;5032988;28;20202;-69
2022/04/15 01:28:46;;;;;;;13.05;11.75;;;8.50;99.90;;;;;;5065234;28;20186;-72
2022/04/15 01:31:11;;;;;;;14.05;12.45;;;8.50;99.90;;;;;;5065413;28;20261;-72
2022/04/15 01:33:37;;;;;;;18.00;16.13;;;8.60;99.90;;;;;;5065392;28;20190;-72
2022/04/15 01:36:02;;;;;;;15.93;14.32;;;8.50;99.90;;;;;;5065097;28;20237;-72
2022/04/15 01:38:28;;;;;;;12.68;11.38;;;8.30;99.90;;;;;;5065088;28;20658;-72
2022/04/15 01:40:54;;;;;;;9.02;8.23;;;8.30;99.90;;;;;;5065225;28;20182;-72
2022/04/15 01:43:19;;;;;;;9.05;8.15;;;8.30;99.90;;;;;;5031687;28;20206;-70
2022/04/15 01:45:45;;;;;;;7.68;6.97;;;8.20;99.90;;;;;;5031612;28;20296;-70
2022/04/15 01:48:11;;;;;;;7.78;6.97;;;8.10;99.90;;;;;;5032147;28;20787;-70
2022/04/15 01:50:36;;;;;;;7.53;6.35;;;8.00;99.90;;;;;;5032944;28;20171;-69
2022/04/15 01:53:02;;;;;;;7.60;6.10;;;8.00;99.90;;;;;;5032872;28;20191;-69
2022/04/15 01:55:28;;;;;;;7.20;6.60;;;8.00;99.90;;;;;;5032111;28;20282;-69
2022/04/15 01:57:55;;;;;;;7.13;5.65;;;8.00;99.90;;;;;;5035754;28;20262;-69
2022/04/15 02:00:21;;;;;;;6.22;5.68;;;8.00;99.90;;;;;;5035446;28;20214;-69
2022/04/15 02:02:46;;;;;;;6.57;5.97;;;8.10;99.90;;;;;;5035281;28;20747;-69
2022/04/15 02:05:12;;;;;;;6.68;5.97;;;8.10;99.90;;;;;;5035285;28;20197;-69
2022/04/15 02:07:38;;;;;;;7.32;6.57;;;8.20;99.90;;;;;;5036406;28;20254;-69
2022/04/15 02:10:05;;;;;;;7.15;6.55;;;8.20;99.90;;;;;;5035264;28;20179;-69
2022/04/15 02:12:30;;;;;;;6.90;6.22;;;8.20;99.90;;;;;;5035035;28;20183;-69
2022/04/15 02:14:56;;;;;;;7.53;6.70;;;8.20;99.90;;;;;;5035364;28;20195;-69
2022/04/15 02:17:22;;;;;;;6.88;6.30;;;8.20;99.90;;;;;;5035981;28;20175;-69
2022/04/15 02:19:47;;;;;;;7.22;6.47;;;8.20;99.90;;;;;;5035336;28;20262;-69
2022/04/15 02:22:13;;;;;;;6.85;6.25;;;8.20;99.90;;;;;;5036147;28;20688;-69
2022/04/15 02:24:38;;;;;;;6.70;5.90;;;8.10;99.90;;;;;;5034732;28;20210;-69
2022/04/15 02:27:04;;;;;;;6.20;5.70;;;8.00;99.90;;;;;;5034908;28;20179;-72
2022/04/15 02:29:32;;;;;;;6.85;6.15;;;7.80;99.90;;;;;;5036011;28;20202;-72
2022/04/15 02:31:57;;;;;;;7.03;6.35;;;7.60;99.90;;;;;;5036297;28;20179;-72
2022/04/15 02:34:23;;;;;;;7.45;6.55;;;7.50;99.90;;;;;;5035541;28;20197;-70
2022/04/15 02:36:49;;;;;;;7.75;7.00;;;7.50;99.90;;;;;;5034986;28;20202;-70
2022/04/15 02:39:17;;;;;;;7.03;6.35;;;7.50;99.90;;;;;;5034953;28;20175;-69
2022/04/15 02:41:43;;;;;;;7.63;6.22;;;7.60;99.90;;;;;;5035886;28;20170;-69
2022/04/15 02:44:09;;;;;;;19.60;17.55;;;7.50;99.90;;;;;;5034814;28;20199;-69
2022/04/15 02:46:35;;;;;;;34.92;31.02;;;7.50;99.90;;;;;;5067729;28;20248;-69
2022/04/15 02:49:02;;;;;;;24.23;14.00;;;7.50;99.90;;;;;;5068053;28;20194;-69
2022/04/15 02:51:28;;;;;;;13.23;11.93;;;7.30;99.90;;;;;;5067706;28;20171;-69
2022/04/15 02:53:54;;;;;;;9.32;8.00;;;7.30;99.90;;;;;;5067553;28;20210;-69
2022/04/15 02:56:19;;;;;;;9.80;8.90;;;7.30;99.90;;;;;;5035843;28;20225;-69
2022/04/15 02:58:45;;;;;;;11.95;10.75;;;7.30;99.90;;;;;;5034355;28;20221;-69
2022/04/15 03:01:10;;;;;;;12.02;10.93;;;7.30;99.90;;;;;;5035472;28;20209;-69
2022/04/15 03:03:36;;;;;;;8.90;8.00;;;7.20;99.90;;;;;;5068501;28;20206;-70
2022/04/15 03:06:04;;;;;;;8.85;8.05;;;7.20;99.90;;;;;;5034132;28;20202;-70
2022/04/15 03:08:30;;;;;;;11.90;6.80;;;7.10;99.90;;;;;;5034196;28;20179;-70
2022/04/15 03:10:57;;;;;;;6.30;5.80;;;7.10;99.90;;;;;;5034155;28;20175;-69
2022/04/15 03:13:23;;;;;;;6.45;5.95;;;7.10;99.90;;;;;;5035525;28;20203;-69
2022/04/15 03:15:49;;;;;;;6.65;6.05;;;7.20;99.90;;;;;;5034278;28;20206;-69
2022/04/15 03:18:14;;;;;;;12.35;6.15;;;7.10;99.90;;;;;;5033901;28;20178;-69
2022/04/15 03:20:40;;;;;;;6.88;6.30;;;7.10;99.90;;;;;;5033874;28;20232;-69
2022/04/15 03:23:52;;;;;;;7.35;6.70;;;6.90;99.90;;;;;;5033839;28;20195;-69
2022/04/15 03:26:17;;;;;;;8.25;7.18;;;7.00;99.90;;;;;;5033702;28;20249;-71
2022/04/15 03:28:44;;;;;;;7.30;6.70;;;7.00;99.90;;;;;;5034046;28;20179;-72
2022/04/15 03:31:10;;;;;;;7.25;6.55;;;6.90;99.90;;;;;;5034560;28;20187;-72
2022/04/15 03:33:36;;;;;;;6.13;5.63;;;6.90;99.90;;;;;;5034360;28;20187;-72
2022/04/15 03:39:24;;;;;;;5.90;5.40;;;6.70;99.90;;;;;;5034950;28;20166;-70
2022/04/15 03:41:49;;;;;;;6.28;5.68;;;6.80;99.90;;;;;;5034817;28;20183;-70
2022/04/15 03:44:15;;;;;;;6.80;6.18;;;6.80;99.90;;;;;;5034788;28;20560;-70
2022/04/15 03:46:40;;;;;;;7.47;6.85;;;6.90;99.90;;;;;;5033996;28;20205;-72
2022/04/15 03:49:07;;;;;;;8.15;6.35;;;6.90;99.90;;;;;;5033300;28;20273;-72
2022/04/15 03:51:32;;;;;;;7.53;6.50;;;6.90;99.90;;;;;;5034232;28;20185;-72
2022/04/15 03:53:58;;;;;;;7.43;6.00;;;7.00;99.90;;;;;;5034163;28;20182;-72
2022/04/15 03:56:23;;;;;;;6.40;5.80;;;7.00;99.90;;;;;;5034566;28;20203;-72
2022/04/15 03:58:49;;;;;;;6.03;5.32;;;6.90;99.90;;;;;;5033137;28;20638;-72
2022/04/15 04:01:14;;;;;;;7.25;6.55;;;6.90;99.90;;;;;;5033449;28;20190;-72
2022/04/15 04:03:40;;;;;;;7.82;6.55;;;6.90;99.90;;;;;;5034317;28;20198;-72
2022/04/15 04:06:05;;;;;;;7.18;6.57;;;6.90;99.90;;;;;;5032989;28;20592;-72
2022/04/15 04:08:31;;;;;;;10.45;9.55;;;6.90;99.90;;;;;;5034133;28;20630;-72
2022/04/15 04:11:00;;;;;;;13.82;12.73;;;6.60;99.90;;;;;;5033269;28;20266;-72
2022/04/15 04:13:26;;;;;;;7.13;6.43;;;6.60;99.90;;;;;;5066202;28;20181;-72
2022/04/15 04:15:51;;;;;;;6.07;5.57;;;6.70;99.90;;;;;;5034229;28;20199;-72
2022/04/15 04:18:20;;;;;;;7.00;6.40;;;6.80;99.90;;;;;;5032770;28;20175;-72
2022/04/15 04:20:46;;;;;;;6.35;5.75;;;6.80;99.90;;;;;;5032139;28;20225;-72
2022/04/15 04:23:12;;;;;;;5.20;4.80;;;6.60;99.90;;;;;;5032554;28;20198;-72
2022/04/15 04:25:38;;;;;;;6.28;4.20;;;6.60;99.90;;;;;;5033926;28;20198;-72
2022/04/15 04:28:03;;;;;;;5.50;5.10;;;6.50;99.90;;;;;;5033425;28;20175;-72
2022/04/15 04:30:29;;;;;;;4.97;4.57;;;6.60;99.90;;;;;;5032997;28;20270;-72
2022/04/15 04:32:55;;;;;;;4.90;3.90;;;6.40;99.90;;;;;;5032659;28;20186;-72
2022/04/15 04:35:21;;;;;;;3.27;3.07;;;6.40;99.90;;;;;;5033859;28;20241;-72
2022/04/15 04:37:47;;;;;;;4.17;3.87;;;6.30;99.90;;;;;;5032833;28;20299;-72
2022/04/15 04:40:14;;;;;;;4.10;3.80;;;6.30;99.90;;;;;;5032488;28;20297;-72
2022/04/15 04:42:40;;;;;;;4.07;3.77;;;6.50;99.90;;;;;;5032389;28;20566;-72
2022/04/15 04:45:07;;;;;;;5.10;4.40;;;6.40;99.90;;;;;;5032328;28;20222;-72
2022/04/15 04:47:33;;;;;;;4.17;3.90;;;6.30;99.90;;;;;;5032254;28;20186;-72
2022/04/15 04:50:01;;;;;;;4.20;3.67;;;6.30;99.90;;;;;;5033226;28;20175;-72
2022/04/15 04:52:27;;;;;;;4.53;3.87;;;6.40;99.90;;;;;;5032438;28;20182;-72
2022/04/15 04:55:20;;;;;;;4.20;3.90;;;6.60;99.90;;;;;;5032187;28;20185;-72
2022/04/15 04:57:46;;;;;;;3.90;3.67;;;6.70;99.90;;;;;;5033315;28;20171;-72
2022/04/15 05:00:14;;;;;;;4.87;4.40;;;6.80;99.90;;;;;;5032222;28;20181;-71
2022/04/15 05:02:40;;;;;;;5.10;4.70;;;6.80;99.90;;;;;;5032447;28;20179;-71
2022/04/15 05:05:06;;;;;;;7.37;6.67;;;6.70;99.90;;;;;;5032314;28;20195;-71
2022/04/15 05:07:32;;;;;;;9.77;8.03;;;6.40;99.90;;;;;;5032162;28;20712;-71
2022/04/15 05:09:57;;;;;;;13.25;8.30;;;6.50;99.90;;;;;;5033022;28;20279;-71
2022/04/15 05:12:23;;;;;;;9.50;7.53;;;6.50;99.90;;;;;;5032028;28;20265;-71
2022/04/15 05:14:50;;;;;;;9.27;5.43;;;6.60;99.90;;;;;;5032057;28;20183;-71
2022/04/15 05:17:16;;;;;;;5.75;5.25;;;6.60;99.90;;;;;;5033286;28;20185;-71
2022/04/15 05:19:43;;;;;;;5.40;4.90;;;6.70;99.90;;;;;;5033287;28;20271;-71
2022/04/15 05:22:09;;;;;;;5.17;4.67;;;6.70;99.90;;;;;;5033190;28;20183;-71
2022/04/15 05:24:35;;;;;;;5.03;4.53;;;6.70;99.90;;;;;;5033701;28;20652;-71
2022/04/15 05:27:01;;;;;;;4.73;4.33;;;6.80;99.90;;;;;;5032151;28;20234;-71
2022/04/15 05:29:26;;;;;;;4.30;3.90;;;6.90;99.90;;;;;;5032854;28;20181;-71
2022/04/15 05:31:52;;;;;;;4.60;4.20;;;7.10;99.90;;;;;;5034116;28;20179;-71
2022/04/15 05:34:17;;;;;;;4.18;3.88;;;7.20;99.90;;;;;;5035944;28;20186;-71
2022/04/15 05:36:43;;;;;;;5.03;4.63;;;7.30;99.90;;;;;;5035660;28;20217;-71
2022/04/15 05:39:09;;;;;;;4.90;4.50;;;7.50;99.90;;;;;;5036997;28;20189;-71
2022/04/15 05:41:34;;;;;;;5.90;4.97;;;7.50;99.90;;;;;;5037244;28;20261;-71
2022/04/15 05:44:03;;;;;;;5.70;5.30;;;7.60;99.90;;;;;;5036863;28;20210;-71
2022/04/15 05:46:32;;;;;;;4.05;3.80;;;7.70;99.90;;;;;;5035487;28;20222;-72
2022/04/15 05:48:57;;;;;;;5.88;4.05;;;7.80;99.90;;;;;;5037182;28;20677;-72
2022/04/15 05:51:23;;;;;;;4.70;4.30;;;7.80;99.90;;;;;;5036718;28;20630;-72
2022/04/15 05:53:53;;;;;;;4.93;4.43;;;7.90;99.90;;;;;;5036630;28;20183;-72
2022/04/15 05:56:19;;;;;;;4.20;3.90;;;8.10;99.90;;;;;;5035379;28;20226;-72
2022/04/15 06:02:07;;;;;;;4.70;4.30;;;8.20;99.90;;;;;;5036814;28;20161;-72
2022/04/15 06:04:32;;;;;;;4.53;4.13;;;8.30;99.90;;;;;;5036481;28;20285;-72
2022/04/15 06:06:58;;;;;;;4.22;3.92;;;8.50;99.90;;;;;;5035491;28;20553;-72
2022/04/15 06:09:23;;;;;;;4.22;3.80;;;8.60;99.90;;;;;;5035940;28;20345;-75
2022/04/15 06:11:55;;;;;;;4.95;4.55;;;8.70;99.90;;;;;;5036344;28;20178;-70
2022/04/15 06:14:22;;;;;;;7.85;4.70;;;8.80;99.90;;;;;;5036643;28;20174;-70
2022/04/15 06:16:49;;;;;;;7.05;5.40;;;8.90;99.90;;;;;;5035838;28;20195;-70
2022/04/15 06:19:14;;;;;;;8.30;6.60;;;9.10;99.90;;;;;;5035568;28;20190;-70
2022/04/15 06:21:40;;;;;;;8.38;7.65;;;9.20;99.90;;;;;;5035913;28;20183;-70
2022/04/15 06:24:08;;;;;;;10.80;7.20;;;9.20;99.90;;;;;;5035696;28;20201;-70
2022/04/15 06:26:34;;;;;;;7.40;6.32;;;9.40;99.90;;;;;;5035127;28;20194;-70
2022/04/15 06:29:00;;;;;;;6.75;6.15;;;9.60;99.90;;;;;;5035596;28;20175;-70
2022/04/15 06:31:26;;;;;;;6.90;6.30;;;9.80;99.90;;;;;;5035111;28;20266;-70
2022/04/15 06:33:52;;;;;;;7.43;6.72;;;10.00;99.90;;;;;;5035402;28;20179;-70
2022/04/15 06:36:19;;;;;;;8.63;7.85;;;10.20;99.90;;;;;;5035105;28;20202;-70
2022/04/15 06:38:51;;;;;;;8.10;7.40;;;10.30;99.90;;;;;;5035804;28;20183;-70
2022/04/15 06:41:16;;;;;;;8.88;7.88;;;10.50;99.90;;;;;;5036290;28;20174;-70
2022/04/15 06:43:42;;;;;;;9.52;8.63;;;10.60;99.90;;;;;;5034272;28;20286;-70
2022/04/15 06:46:08;;;;;;;9.25;8.35;;;10.80;99.90;;;;;;5035037;28;20198;-70
2022/04/15 06:48:33;;;;;;;9.45;8.40;;;10.90;99.90;;;;;;5036491;28;20194;-70
2022/04/15 06:50:59;;;;;;;11.25;10.18;;;11.00;99.90;;;;;;5035850;28;20175;-70
2022/04/15 06:53:24;;;;;;;12.80;11.52;;;11.10;99.90;;;;;;5068590;28;20179;-70
2022/04/15 06:55:51;;;;;;;11.85;10.77;;;11.30;99.90;;;;;;5035842;28;20251;-70
2022/04/15 06:58:17;;;;;;;14.55;13.10;;;11.40;99.90;;;;;;5068043;28;20534;-70
2022/04/15 07:00:43;;;;;;;15.77;14.23;;;11.60;99.90;;;;;;5067930;28;20175;-68
2022/04/15 07:03:16;;;;;;;17.30;15.55;;;11.70;99.90;;;;;;5068926;28;20198;-68
2022/04/15 07:05:43;;;;;;;17.25;15.45;;;11.70;99.90;;;;;;5036051;28;20210;-72
2022/04/15 07:08:10;;;;;;;16.42;14.63;;;11.80;99.90;;;;;;5068515;28;20256;-68
2022/04/15 07:10:38;;;;;;;16.90;15.20;;;12.00;99.90;;;;;;5068490;28;20182;-71
2022/04/15 07:13:04;;;;;;;17.30;15.48;;;12.20;99.90;;;;;;5067452;28;20190;-71
2022/04/15 07:15:30;;;;;;;17.05;15.35;;;12.30;99.90;;;;;;5067653;28;20745;-70
2022/04/15 07:18:00;;;;;;;17.65;15.73;;;12.40;99.90;;;;;;5035307;28;20258;-71
2022/04/15 07:20:25;;;;;;;16.85;15.15;;;12.50;99.90;;;;;;5067293;28;20270;-71
2022/04/15 07:22:58;;;;;;;16.70;14.75;;;12.80;99.90;;;;;;5067253;28;20222;-71
2022/04/15 07:25:24;;;;;;;16.00;14.13;;;13.00;99.90;;;;;;5067199;28;20294;-71
2022/04/15 07:27:50;;;;;;;15.63;14.00;;;13.40;99.90;;;;;;5067155;28;20174;-71
2022/04/15 07:30:17;;;;;;;14.93;13.43;;;13.80;99.90;;;;;;5067381;28;20183;-71
2022/04/15 07:32:44;;;;;;;19.48;17.30;;;13.80;99.90;;;;;;5034996;28;20190;-71
2022/04/15 07:35:09;;;;;;;25.10;22.50;;;13.90;99.90;;;;;;5067072;28;20191;-71
2022/04/15 07:37:35;;;;;;;17.80;15.10;;;13.80;99.90;;;;;;5067450;28;20183;-71
2022/04/15 07:40:01;;;;;;;17.95;14.73;;;13.80;99.90;;;;;;5067026;28;20175;-71
2022/04/15 07:42:26;;;;;;;90.65;81.20;;;13.80;99.90;;;;;;5067109;28;20171;-72
2022/04/15 07:44:52;;;;;;;24.20;22.00;;;13.70;99.90;;;;;;5067581;28;20206;-71
2022/04/15 07:47:17;;;;;;;34.90;31.58;;;13.30;99.90;;;;;;5034814;28;20185;-71
2022/04/15 07:49:43;;;;;;;17.95;16.13;;;12.90;99.90;;;;;;5066593;28;20265;-71
2022/04/15 07:52:08;;;;;;;17.40;14.68;;;12.60;99.90;;;;;;5034559;28;20193;-71
2022/04/15 07:54:34;;;;;;;12.77;11.35;;;12.60;99.90;;;;;;5067480;28;20221;-71
2022/04/15 07:57:00;;;;;;;23.15;17.77;;;12.60;99.90;;;;;;5066328;28;20352;-70
2022/04/15 07:59:26;;;;;;;19.40;15.05;;;12.70;99.90;;;;;;5066572;28;20257;-71
2022/04/15 08:01:53;;;;;;;12.55;11.25;;;12.80;99.90;;;;;;5066376;28;20275;-71
2022/04/15 08:04:18;;;;;;;10.52;9.40;;;13.00;99.90;;;;;;5066524;28;20198;-71
2022/04/15 08:06:47;;;;;;;13.98;8.65;;;13.20;99.90;;;;;;5034222;28;20198;-70
2022/04/15 08:09:12;;;;;;;10.05;8.50;;;13.20;99.90;;;;;;5032942;28;20160;-71
2022/04/15 08:11:38;;;;;;;9.80;8.20;;;13.10;99.90;;;;;;5034191;28;20254;-72
2022/04/15 08:14:04;;;;;;;10.00;9.00;;;13.30;99.90;;;;;;5035253;28;20246;-71
2022/04/15 08:16:29;;;;;;;8.88;7.78;;;13.40;99.90;;;;;;5032918;28;20198;-70
2022/04/15 08:18:56;;;;;;;10.50;8.10;;;13.30;99.90;;;;;;5033335;28;20301;-72
2022/04/15 08:21:22;;;;;;;11.27;9.30;;;13.50;99.90;;;;;;5033153;28;20201;-72
2022/04/15 08:23:48;;;;;;;7.82;7.05;;;13.50;99.90;;;;;;5032740;28;20248;-70
2022/04/15 08:26:14;;;;;;;8.43;7.20;;;13.70;97.40;;;;;;5032768;28;20194;-71
2022/04/15 08:28:49;;;;;;;9.50;7.07;;;13.70;95.70;;;;;;5032695;28;20175;-71
2022/04/15 08:31:15;;;;;;;8.07;7.22;;;13.80;94.20;;;;;;5033205;28;20174;-70
2022/04/15 08:34:08;;;;;;;7.60;6.82;;;13.80;93.40;;;;;;5033088;28;20178;-70
2022/04/15 08:36:52;;;;;;;8.45;6.10;;;13.90;92.90;;;;;;5032594;28;20209;-70
2022/04/15 08:39:17;;;;;;;7.78;6.68;;;14.00;92.50;;;;;;5032593;28;20177;-71
2022/04/15 08:41:58;;;;;;;6.78;6.18;;;14.00;91.50;;;;;;5032812;28;20182;-68
2022/04/15 08:44:44;;;;;;;8.88;6.05;;;14.10;90.60;;;;;;5033663;28;20197;-69
2022/04/15 08:47:11;;;;;;;7.60;6.47;;;14.20;90.70;;;;;;5032773;28;20252;-70
2022/04/15 08:49:37;;;;;;;8.50;6.75;;;14.30;90.30;;;;;;5032500;28;20190;-71
2022/04/15 08:52:03;;;;;;;10.77;9.65;;;14.10;90.10;;;;;;5033714;28;20181;-70
2022/04/15 08:54:29;;;;;;;10.38;9.30;;;14.00;90.10;;;;;;5032257;28;20182;-70
2022/04/15 08:56:54;;;;;;;9.00;7.60;;;13.60;90.30;;;;;;5032446;28;20248;-70
2022/04/15 08:59:20;;;;;;;6.95;6.25;;;13.60;91.50;;;;;;5033539;28;20189;-70
2022/04/15 09:01:47;;;;;;;7.20;6.50;;;13.80;90.50;;;;;;5032595;28;20236;-70
2022/04/15 09:04:15;;;;;;;10.02;6.60;;;14.00;90.30;;;;;;5032163;28;20194;-70
2022/04/15 09:06:42;;;;;;;7.57;6.28;;;13.90;85.90;;;;;;5032188;28;20681;-70
2022/04/15 09:09:12;;;;;;;8.15;6.18;;;13.80;87.00;;;;;;5032827;28;20179;-70
2022/04/15 09:11:38;;;;;;;8.02;6.35;;;14.00;89.70;;;;;;5033045;28;20175;-70
2022/04/15 09:14:12;;;;;;;7.75;6.97;;;14.30;87.90;;;;;;5032878;28;20202;-70
2022/04/15 09:16:39;;;;;;;9.73;7.20;;;14.30;84.20;;;;;;5032180;28;20199;-70
2022/04/15 09:19:07;;;;;;;6.60;6.03;;;14.40;84.80;;;;;;5032490;28;20185;-70
2022/04/15 09:21:33;;;;;;;6.38;5.78;;;14.60;85.30;;;;;;5032257;28;20186;-70
2022/04/15 09:24:13;;;;;;;7.55;6.40;;;14.70;82.90;;;;;;5032927;28;20191;-70
2022/04/15 09:26:44;;;;;;;7.60;6.60;;;14.90;83.80;;;;;;5033141;28;20283;-70
2022/04/15 09:29:13;;;;;;;7.15;6.35;;;15.00;83.30;;;;;;5032885;28;20174;-69
2022/04/15 09:35:16;;;;;;;7.35;5.97;;;15.40;80.50;;;;;;5033117;28;20233;-69
2022/04/15 09:38:18;;;;;;;8.48;6.10;;;15.70;80.50;;;;;;5031925;28;20179;-70
2022/04/15 09:40:44;;;;;;;8.50;6.57;;;15.90;78.30;;;;;;5033096;28;20166;-71
2022/04/15 09:43:10;;;;;;;6.75;5.85;;;15.70;76.20;;;;;;5032635;28;20574;-71
2022/04/15 09:45:45;;;;;;;10.00;5.60;;;15.50;77.10;;;;;;5032726;28;20277;-71
2022/04/15 09:48:10;;;;;;;6.15;5.53;;;15.50;75.60;;;;;;5032830;28;20186;-71
2022/04/15 09:50:42;;;;;;;6.03;5.47;;;15.60;77.30;;;;;;5032267;28;20248;-80
2022/04/15 09:53:16;;;;;;;9.38;6.13;;;15.80;75.50;;;;;;5033976;28;20164;-74
2022/04/15 09:55:53;;;;;;;7.43;5.95;;;16.10;74.50;;;;;;5028765;28;20742;-72
2022/04/15 09:58:20;;;;;;;6.28;5.70;;;16.20;74.80;;;;;;5023456;28;20174;-72
2022/04/15 10:00:48;;;;;;;6.72;6.03;;;16.40;72.80;;;;;;5012952;28;20179;-72
2022/04/15 10:03:35;;;;;;;10.20;5.57;;;16.50;72.20;;;;;;5013093;28;20196;-72
2022/04/15 10:06:01;;;;;;;6.03;4.95;;;16.40;71.00;;;;;;5012905;28;20237;-72
2022/04/15 10:08:27;;;;;;;5.50;5.00;;;16.30;71.70;;;;;;5012553;28;20176;-73
2022/04/15 10:10:55;;;;;;;10.40;5.47;;;16.30;71.50;;;;;;5015125;28;20191;-78
2022/04/15 10:13:22;;;;;;;6.53;5.45;;;16.10;70.80;;;;;;5011947;28;20733;-73
2022/04/15 10:15:49;;;;;;;7.13;5.60;;;15.80;70.10;;;;;;5011908;28;20210;-72
2022/04/15 10:18:17;;;;;;;8.27;4.68;;;15.40;69.60;;;;;;5012051;28;20180;-73
2022/04/15 10:20:44;;;;;;;10.82;9.70;;;15.30;69.30;;;;;;5015678;28;20164;-74
2022/04/15 10:23:11;;;;;;;4.68;4.13;;;15.50;71.00;;;;;;5016691;28;20302;-72
2022/04/15 10:25:41;;;;;;;5.32;4.45;;;15.70;68.20;;;;;;5016645;28;20210;-74
2022/04/15 10:28:09;;;;;;;4.63;4.18;;;15.90;66.60;;;;;;5015542;28;20167;-70
2022/04/15 10:30:35;;;;;;;4.03;3.60;;;16.40;67.70;;;;;;5015256;28;20274;-70
2022/04/15 10:33:01;;;;;;;4.10;3.70;;;16.80;67.40;;;;;;5015234;28;20323;-72
2022/04/15 10:35:29;;;;;;;4.40;3.88;;;16.80;65.10;;;;;;5014933;28;20573;-70
2022/04/15 10:38:01;;;;;;;5.55;3.72;;;16.80;63.90;;;;;;5014984;28;20188;-70
2022/04/15 10:40:31;;;;;;;4.10;3.78;;;16.90;64.40;;;;;;5015835;28;20187;-70
2022/04/15 10:43:19;;;;;;;3.78;3.47;;;17.40;64.80;;;;;;5014770;28;20654;-70
2022/04/15 10:45:44;;;;;;;5.80;3.50;;;17.30;62.90;;;;;;5016030;28;20192;-70
2022/04/15 10:48:10;;;;;;;4.55;3.50;;;17.10;61.40;;;;;;5014932;28;20199;-70
2022/04/15 10:50:39;;;;;;;3.97;3.58;;;16.90;62.10;;;;;;5015057;28;20182;-71
2022/04/15 10:53:23;;;;;;;4.53;3.78;;;17.20;64.10;;;;;;5014993;28;20180;-71
2022/04/15 10:55:49;;;;;;;3.97;3.38;;;17.30;62.80;;;;;;5014686;28;20203;-71
2022/04/15 10:58:16;;;;;;;3.83;3.38;;;17.50;63.50;;;;;;5014891;28;20186;-71
2022/04/15 11:03:30;;;;;;;4.10;3.50;;;17.90;61.10;;;;;;5016265;28;20201;-71
2022/04/15 11:05:57;;;;;;;4.38;3.47;;;18.10;60.00;;;;;;5014397;28;20199;-71
2022/04/15 11:08:25;;;;;;;4.30;3.28;;;18.30;59.70;;;;;;5014349;28;20180;-70
2022/04/15 11:11:03;;;;;;;6.10;3.47;;;18.50;59.00;;;;;;5014681;28;20176;-70
2022/04/15 11:13:40;;;;;;;4.38;3.97;;;18.30;59.30;;;;;;5014387;28;20222;-70
2022/04/15 11:16:13;;;;;;;4.40;4.00;;;17.70;59.60;;;;;;5014185;28;20210;-70
2022/04/15 11:18:55;;;;;;;4.70;3.42;;;17.10;59.90;;;;;;5015460;28;20175;-74
2022/04/15 11:21:21;;;;;;;5.07;3.88;;;17.00;61.70;;;;;;5014784;28;20266;-73
2022/04/15 11:23:52;;;;;;;5.80;5.38;;;17.00;62.00;;;;;;5015654;28;20665;-72
2022/04/15 11:26:19;;;;;;;5.80;5.30;;;17.20;62.30;;;;;;5014630;28;20286;-72
2022/04/15 11:28:46;;;;;;;4.50;3.45;;;17.30;60.60;;;;;;5015471;28;20167;-71
2022/04/15 11:31:32;;;;;;;4.60;3.40;;;17.30;59.60;;;;;;5014301;28;20241;-71
2022/04/15 11:34:06;;;;;;;5.63;3.47;;;17.50;58.30;;;;;;5014339;28;20168;-71
2022/04/15 11:36:34;;;;;;;4.07;3.55;;;17.30;59.70;;;;;;5014002;28;20751;-72
2022/04/15 11:39:03;;;;;;;4.22;3.50;;;17.10;60.10;;;;;;5014296;28;20190;-71
2022/04/15 11:41:28;;;;;;;4.43;3.40;;;16.90;61.00;;;;;;5013781;28;20183;-71
2022/04/15 11:44:00;;;;;;;4.30;3.20;;;16.80;63.50;;;;;;5013767;28;20222;-74
2022/04/15 11:46:36;;;;;;;4.60;3.30;;;16.70;62.60;;;;;;5015245;28;20686;-73
2022/04/15 11:49:02;;;;;;;6.13;2.75;;;16.50;61.50;;;;;;5014349;28;20689;-73
2022/04/15 11:51:28;;;;;;;3.60;2.83;;;16.60;62.10;;;;;;5014397;28;20171;-72
2022/04/15 11:53:57;;;;;;;4.28;2.88;;;16.70;61.70;;;;;;5015104;28;20179;-70
2022/04/15 11:56:26;;;;;;;6.60;2.90;;;16.90;61.50;;;;;;5013446;28;20206;-70
2022/04/15 11:58:52;;;;;;;4.57;3.10;;;17.10;59.60;;;;;;5013811;28;20184;-70
2022/04/15 12:01:31;;;;;;;3.38;2.78;;;17.20;58.90;;;;;;5014334;28;20172;-71
2022/04/15 12:03:57;;;;;;;8.07;3.80;;;17.40;58.60;;;;;;5013314;28;20210;-72
2022/04/15 12:06:23;;;;;;;15.77;14.18;;;17.50;58.80;;;;;;5013382;28;20196;-72
2022/04/15 12:08:50;;;;;;;4.18;3.80;;;17.50;59.50;;;;;;5013778;28;20210;-72
2022/04/15 12:11:21;;;;;;;4.55;3.70;;;17.20;60.40;;;;;;5014084;28;20176;-78
2022/04/15 12:13:48;;;;;;;4.45;3.83;;;17.10;61.50;;;;;;5015404;28;20160;-73
2022/04/15 12:16:13;;;;;;;5.15;3.90;;;17.20;61.90;;;;;;5015224;28;20275;-72
2022/04/15 12:18:39;;;;;;;4.88;4.40;;;17.10;60.50;;;;;;5013237;28;20263;-72
2022/04/15 12:21:05;;;;;;;4.65;3.45;;;17.20;60.10;;;;;;5014099;28;20176;-72
2022/04/15 12:23:30;;;;;;;4.30;3.80;;;17.10;61.40;;;;;;5014531;28;20666;-72
2022/04/15 12:26:07;;;;;;;3.80;3.40;;;17.00;61.50;;;;;;5013866;28;20191;-72
2022/04/15 12:31:27;;;;;;;5.32;3.42;;;16.70;62.90;;;;;;5015136;28;20163;-72
2022/04/15 12:33:52;;;;;;;4.45;3.08;;;16.90;63.20;;;;;;5013587;28;20237;-73
2022/04/15 12:36:19;;;;;;;3.03;2.75;;;16.90;62.10;;;;;;5013540;28;20204;-72
2022/04/15 12:39:05;;;;;;;3.85;3.05;;;17.30;61.80;;;;;;5013324;28;20638;-72
2022/04/15 12:41:46;;;;;;;4.00;3.20;;;17.40;59.70;;;;;;5012832;28;20184;-72
2022/04/15 12:44:19;;;;;;;4.95;3.63;;;17.30;60.40;;;;;;5013529;28;20222;-72
2022/04/15 12:46:47;;;;;;;4.78;3.55;;;17.20;61.50;;;;;;5012890;28;20219;-72
2022/04/15 12:49:23;;;;;;;3.80;3.50;;;17.00;61.80;;;;;;5013034;28;20187;-74
2022/04/15 12:51:49;;;;;;;4.18;3.70;;;16.80;61.80;;;;;;5012953;28;20167;-71
2022/04/15 12:54:15;;;;;;;3.95;3.55;;;16.70;62.90;;;;;;5012421;28;20237;-71
2022/04/15 12:57:18;;;;;;;5.22;3.30;;;16.50;64.10;;;;;;5012729;28;20199;-71
2022/04/15 12:59:49;;;;;;;4.15;3.75;;;16.40;63.50;;;;;;5013183;28;20262;-72
2022/04/15 13:02:15;;;;;;;6.90;3.50;;;16.30;64.80;;;;;;5014394;28;20247;-72
2022/04/15 13:04:48;;;;;;;3.65;3.35;;;16.30;65.40;;;;;;5013419;28;20298;-71
2022/04/15 13:07:24;;;;;;;3.55;3.22;;;16.20;64.90;;;;;;5012639;28;20176;-72
2022/04/15 13:09:51;;;;;;;4.00;3.67;;;16.20;65.10;;;;;;5012501;28;20203;-72